createdAt,value
2019-04-13T00:00:41.682Z,11.53
2019-04-13T00:03:11.776Z,11.80
2019-04-13T00:05:57.624Z,11.53
2019-04-13T00:08:29.984Z,11.00
2019-04-13T00:11:05.495Z,11.07
2019-04-13T00:13:35.679Z,11.53
2019-04-13T00:16:05.806Z,11.30
2019-04-13T00:18:35.925Z,11.33
2019-04-13T00:21:06.111Z,11.23
2019-04-13T00:23:36.251Z,11.03
2019-04-13T00:26:06.465Z,11.57
2019-04-13T00:28:36.650Z,11.00
2019-04-13T00:31:18.563Z,11.67
2019-04-13T00:33:48.664Z,11.00
2019-04-13T00:36:18.791Z,10.90
2019-04-13T00:38:48.875Z,11.30
2019-04-13T00:41:18.921Z,10.97
2019-04-13T00:43:49.050Z,11.07
2019-04-13T00:46:22.907Z,10.73
2019-04-13T00:48:53.044Z,10.93
2019-04-13T00:51:23.179Z,10.97
2019-04-13T00:53:53.251Z,11.03
2019-04-13T00:56:23.556Z,10.50
2019-04-13T00:58:53.645Z,10.77
2019-04-13T01:01:23.874Z,11.03
2019-04-13T01:03:55.079Z,10.60
2019-04-13T01:06:25.361Z,11.60
2019-04-13T01:08:55.486Z,10.80
2019-04-13T01:11:25.839Z,10.37
2019-04-13T01:13:55.967Z,10.63
2019-04-13T01:16:26.234Z,10.27
2019-04-13T01:18:57.057Z,10.60
2019-04-13T01:21:27.602Z,11.40
2019-04-13T01:23:57.821Z,11.23
2019-04-13T01:26:27.900Z,11.53
2019-04-13T01:28:58.272Z,10.63
2019-04-13T01:31:28.401Z,10.77
2019-04-13T01:33:58.597Z,10.77
2019-04-13T01:36:28.772Z,11.17
2019-04-13T01:38:59.159Z,10.57
2019-04-13T01:41:29.236Z,10.73
2019-04-13T01:43:59.446Z,11.43
2019-04-13T01:46:29.700Z,11.17
2019-04-13T01:48:59.843Z,10.40
2019-04-13T01:51:29.909Z,10.60
2019-04-13T01:54:00.121Z,10.53
2019-04-13T01:56:30.304Z,10.27
2019-04-13T01:59:00.807Z,10.30
2019-04-13T02:01:52.122Z,10.93
2019-04-13T02:04:41.377Z,10.93
2019-04-13T02:07:45.853Z,10.27
2019-04-13T02:10:28.551Z,10.10
2019-04-13T02:12:58.858Z,10.30
2019-04-13T02:15:29.022Z,10.57
2019-04-13T02:17:59.171Z,11.10
2019-04-13T02:20:29.376Z,11.30
2019-04-13T02:22:59.492Z,10.83
2019-04-13T02:25:29.530Z,11.13
2019-04-13T02:27:59.597Z,11.73
2019-04-13T02:30:29.720Z,11.33
2019-04-13T02:32:59.868Z,11.90
2019-04-13T02:35:35.947Z,10.90
2019-04-13T02:38:01.793Z,11.37
2019-04-13T02:40:31.961Z,11.27
2019-04-13T02:43:02.133Z,11.27
2019-04-13T02:45:32.251Z,10.67
2019-04-13T02:48:02.441Z,10.67
2019-04-13T02:50:32.593Z,12.33
2019-04-13T02:53:02.854Z,11.40
2019-04-13T02:55:33.063Z,11.37
2019-04-13T02:58:03.331Z,11.87
2019-04-13T03:00:33.461Z,11.57
2019-04-13T03:03:03.650Z,12.13
2019-04-13T03:05:46.131Z,13.00
2019-04-13T03:08:06.338Z,12.73
2019-04-13T03:10:36.618Z,12.37
2019-04-13T03:13:06.708Z,12.27
2019-04-13T03:15:55.884Z,12.13
2019-04-13T03:18:33.437Z,12.70
2019-04-13T03:21:03.821Z,12.70
2019-04-13T03:23:34.078Z,12.70
2019-04-13T03:26:04.355Z,12.80
2019-04-13T03:28:34.502Z,13.80
2019-04-13T03:31:04.575Z,12.93
2019-04-13T03:33:34.858Z,13.27
2019-04-13T03:36:05.210Z,14.10
2019-04-13T03:38:35.371Z,13.63
2019-04-13T03:41:05.421Z,14.13
2019-04-13T03:43:35.620Z,13.67
2019-04-13T03:46:05.636Z,14.43
2019-04-13T03:48:35.737Z,14.17
2019-04-13T03:51:05.929Z,14.17
2019-04-13T03:53:36.126Z,14.67
2019-04-13T03:56:06.842Z,14.30
2019-04-13T03:58:37.107Z,14.20
2019-04-13T04:01:07.218Z,15.13
2019-04-13T04:03:37.385Z,15.93
2019-04-13T04:06:11.908Z,15.17
2019-04-13T04:08:39.300Z,15.83
2019-04-13T04:11:09.458Z,15.07
2019-04-13T04:13:39.599Z,15.03
2019-04-13T04:16:09.735Z,14.73
2019-04-13T04:18:39.841Z,14.87
2019-04-13T04:21:09.975Z,15.70
2019-04-13T04:23:40.029Z,16.03
2019-04-13T04:26:10.462Z,14.43
2019-04-13T04:28:40.577Z,15.43
2019-04-13T04:31:10.703Z,15.77
2019-04-13T04:33:40.768Z,15.83
2019-04-13T04:36:22.756Z,16.27
2019-04-13T04:38:42.638Z,16.00
2019-04-13T04:41:12.776Z,16.30
2019-04-13T04:43:42.953Z,16.17
2019-04-13T04:46:13.280Z,15.87
2019-04-13T04:48:43.453Z,17.83
2019-04-13T04:51:13.534Z,16.80
2019-04-13T04:53:43.640Z,15.93
2019-04-13T04:56:14.495Z,17.57
2019-04-13T04:58:44.691Z,17.20
2019-04-13T05:01:14.943Z,17.37
2019-04-13T05:03:46.067Z,17.33
2019-04-13T05:06:16.219Z,17.27
2019-04-13T05:08:46.469Z,17.33
2019-04-13T05:11:16.686Z,18.20
2019-04-13T05:13:46.831Z,18.83
2019-04-13T05:16:16.902Z,17.87
2019-04-13T05:18:47.126Z,18.10
2019-04-13T05:21:17.815Z,18.30
2019-04-13T05:23:47.907Z,18.47
2019-04-13T05:26:17.951Z,18.27
2019-04-13T05:28:48.088Z,19.10
2019-04-13T05:31:18.224Z,19.27
2019-04-13T05:33:48.419Z,19.63
2019-04-13T05:36:18.498Z,19.43
2019-04-13T05:38:48.896Z,19.10
2019-04-13T05:41:19.070Z,18.80
2019-04-13T05:43:49.194Z,19.27
2019-04-13T05:46:19.270Z,19.37
2019-04-13T05:49:01.604Z,19.63
2019-04-13T05:51:31.736Z,18.80
2019-04-13T05:54:02.054Z,19.87
2019-04-13T05:56:32.214Z,19.07
2019-04-13T05:59:03.373Z,19.23
2019-04-13T06:01:33.827Z,20.07
2019-04-13T06:04:05.673Z,19.33
2019-04-13T06:06:35.677Z,18.57
2019-04-13T06:09:08.194Z,19.10
2019-04-13T06:11:38.325Z,19.40
2019-04-13T06:14:08.427Z,18.23
2019-04-13T06:16:40.294Z,19.10
2019-04-13T06:19:10.591Z,18.30
2019-04-13T06:21:44.616Z,17.90
2019-04-13T06:24:12.771Z,18.53
2019-04-13T06:26:43.078Z,19.07
2019-04-13T06:29:13.329Z,18.77
2019-04-13T06:32:01.446Z,17.43
2019-04-13T06:34:39.902Z,17.70
2019-04-13T06:37:12.349Z,18.63
2019-04-13T06:39:41.881Z,18.80
2019-04-13T06:42:16.180Z,18.50
2019-04-13T06:44:44.000Z,19.03
2019-04-13T06:47:14.280Z,18.63
2019-04-13T06:49:44.679Z,19.17
2019-04-13T06:52:14.812Z,19.47
2019-04-13T06:54:44.936Z,17.37
2019-04-13T06:57:15.011Z,19.47
2019-04-13T06:59:45.354Z,17.83
2019-04-13T07:02:15.571Z,18.53
2019-04-13T07:04:45.745Z,19.30
2019-04-13T07:07:45.994Z,18.73
2019-04-13T07:10:30.835Z,17.70
2019-04-13T07:13:24.894Z,17.90
2019-04-13T07:15:59.730Z,17.17
2019-04-13T07:18:29.807Z,17.70
2019-04-13T07:20:59.955Z,17.37
2019-04-13T07:23:30.097Z,17.03
2019-04-13T07:26:00.514Z,16.80
2019-04-13T07:28:31.193Z,17.10
2019-04-13T07:31:01.819Z,17.13
2019-04-13T07:33:32.036Z,16.57
2019-04-13T07:36:02.441Z,16.87
2019-04-13T07:38:32.545Z,16.23
2019-04-13T07:41:02.669Z,15.77
2019-04-13T07:43:32.819Z,15.73
2019-04-13T07:46:22.019Z,15.83
2019-04-13T07:49:17.005Z,16.17
2019-04-13T07:52:18.472Z,15.07
2019-04-13T07:54:48.623Z,15.57
2019-04-13T07:57:18.946Z,15.23
2019-04-13T07:59:50.723Z,15.87
2019-04-13T08:02:21.000Z,15.50
2019-04-13T08:04:51.398Z,15.13
2019-04-13T08:07:21.657Z,14.73
2019-04-13T08:09:51.835Z,14.30
2019-04-13T08:12:22.090Z,13.63
2019-04-13T08:14:52.368Z,13.30
2019-04-13T08:17:32.938Z,12.33
2019-04-13T08:20:20.671Z,12.37
2019-04-13T08:22:50.882Z,11.40
2019-04-13T08:25:21.027Z,11.23
2019-04-13T08:27:51.242Z,9.90
2019-04-13T08:30:21.404Z,10.23
2019-04-13T08:32:51.625Z,10.27
2019-04-13T08:35:24.709Z,9.97
2019-04-13T08:38:11.769Z,10.30
2019-04-13T08:40:26.634Z,10.00
2019-04-13T08:42:58.916Z,10.27
2019-04-13T08:45:28.693Z,9.47
2019-04-13T08:47:58.772Z,8.87
2019-04-13T08:50:28.862Z,9.40
2019-04-13T08:52:59.019Z,8.77
2019-04-13T08:55:29.135Z,8.83
2019-04-13T08:57:59.290Z,9.87
2019-04-13T09:00:29.510Z,9.20
2019-04-13T09:02:59.667Z,8.80
2019-04-13T09:05:29.982Z,9.10
2019-04-13T09:08:00.136Z,8.70
2019-04-13T09:10:31.716Z,8.00
2019-04-13T09:13:02.508Z,8.60
2019-04-13T09:15:32.962Z,8.47
2019-04-13T09:18:37.866Z,8.33
2019-04-13T09:21:16.671Z,8.20
2019-04-13T09:23:48.710Z,8.03
2019-04-13T09:26:18.643Z,8.13
2019-04-13T09:28:48.783Z,7.63
2019-04-13T09:31:18.922Z,7.77
2019-04-13T09:33:49.029Z,7.53
2019-04-13T09:36:19.146Z,7.70
2019-04-13T09:38:49.309Z,8.27
2019-04-13T09:41:19.505Z,8.70
2019-04-13T09:44:14.830Z,8.50
2019-04-13T09:46:45.589Z,9.13
2019-04-13T09:49:19.535Z,9.77
2019-04-13T09:51:47.610Z,8.90
2019-04-13T09:54:17.784Z,8.50
2019-04-13T09:56:47.940Z,8.53
2019-04-13T09:59:18.142Z,8.40
2019-04-13T10:01:48.512Z,9.20
2019-04-13T10:04:18.669Z,9.20
2019-04-13T10:06:49.690Z,8.93
2019-04-13T10:09:20.064Z,9.23
2019-04-13T10:12:08.075Z,9.00
2019-04-13T10:14:44.756Z,8.83
2019-04-13T10:17:28.942Z,8.40
2019-04-13T10:19:59.033Z,8.33
2019-04-13T10:22:29.310Z,8.63
2019-04-13T10:25:03.147Z,8.27
2019-04-13T10:27:33.933Z,8.37
2019-04-13T10:30:05.616Z,8.60
2019-04-13T10:32:35.804Z,8.13
2019-04-13T10:35:06.190Z,7.87
2019-04-13T10:37:36.490Z,7.97
2019-04-13T10:40:08.657Z,8.43
2019-04-13T10:42:38.854Z,7.70
2019-04-13T10:45:20.937Z,8.00
2019-04-13T10:48:01.102Z,8.50
2019-04-13T10:50:36.235Z,7.87
2019-04-13T10:53:06.516Z,7.77
2019-04-13T10:55:36.666Z,8.13
2019-04-13T10:58:06.837Z,8.07
2019-04-13T11:00:37.569Z,8.20
2019-04-13T11:03:07.821Z,7.90
2019-04-13T11:05:38.199Z,8.00
2019-04-13T11:08:08.279Z,7.50
2019-04-13T11:10:38.425Z,7.90
2019-04-13T11:13:08.972Z,7.70
2019-04-13T11:15:39.292Z,7.37
2019-04-13T11:18:09.569Z,8.07
2019-04-13T11:20:39.741Z,7.67
2019-04-13T11:23:09.795Z,7.07
2019-04-13T11:25:39.963Z,7.10
2019-04-13T11:28:10.249Z,7.47
2019-04-13T11:30:40.483Z,7.53
2019-04-13T11:33:10.595Z,8.20
2019-04-13T11:35:40.741Z,7.90
2019-04-13T11:38:11.136Z,7.00
2019-04-13T11:40:42.943Z,6.97
2019-04-13T11:43:31.113Z,6.97
2019-04-13T11:46:18.395Z,7.03
2019-04-13T11:49:01.731Z,6.20
2019-04-13T11:51:32.684Z,6.97
2019-04-13T11:54:04.205Z,7.10
2019-04-13T11:56:37.128Z,6.83
2019-04-13T11:59:06.604Z,7.50
2019-04-13T12:01:54.730Z,7.07
2019-04-13T12:04:44.215Z,6.70
2019-04-13T12:07:30.033Z,6.80
2019-04-13T12:10:27.686Z,7.10
2019-04-13T12:13:32.730Z,6.87
2019-04-13T12:16:17.149Z,6.40
2019-04-13T12:19:15.104Z,6.97
2019-04-13T12:22:00.931Z,6.50
2019-04-13T12:24:32.366Z,6.77
2019-04-13T12:27:03.248Z,5.77
2019-04-13T12:29:33.379Z,6.37
2019-04-13T12:32:05.195Z,5.83
2019-04-13T12:34:35.437Z,5.80
2019-04-13T12:37:05.550Z,6.30
2019-04-13T12:39:39.311Z,5.70
2019-04-13T12:42:07.581Z,5.67
2019-04-13T12:44:39.586Z,5.20
2019-04-13T12:47:13.912Z,5.43
2019-04-13T12:49:44.047Z,5.20
2019-04-13T12:52:14.213Z,5.40
2019-04-13T12:54:44.320Z,5.97
2019-04-13T12:57:16.144Z,5.50
2019-04-13T12:59:47.191Z,6.03
2019-04-13T13:02:34.781Z,6.50
2019-04-13T13:05:21.322Z,6.10
2019-04-13T13:07:51.354Z,5.83
2019-04-13T13:10:25.208Z,5.70
2019-04-13T13:12:58.322Z,5.67
2019-04-13T13:15:28.390Z,6.17
2019-04-13T13:17:58.631Z,5.47
2019-04-13T13:20:28.833Z,5.60
2019-04-13T13:22:59.007Z,5.53
2019-04-13T13:25:31.519Z,5.90
2019-04-13T13:28:01.651Z,5.40
2019-04-13T13:30:33.725Z,5.07
2019-04-13T13:33:03.878Z,5.63
2019-04-13T13:35:34.078Z,5.20
2019-04-13T13:38:05.050Z,5.20
2019-04-13T13:40:35.578Z,4.77
2019-04-13T13:43:05.730Z,4.50
2019-04-13T13:45:35.880Z,4.60
2019-04-13T13:48:06.123Z,5.40
2019-04-13T13:50:36.278Z,5.30
2019-04-13T13:53:10.419Z,4.80
2019-04-13T13:55:38.375Z,5.03
2019-04-13T13:58:15.901Z,4.50
2019-04-13T14:01:03.266Z,4.80
2019-04-13T14:03:33.482Z,4.47
2019-04-13T14:06:03.650Z,4.40
2019-04-13T14:08:33.882Z,4.47
2019-04-13T14:11:05.882Z,4.47
2019-04-13T14:13:36.109Z,4.47
2019-04-13T14:16:06.240Z,4.03
2019-04-13T14:18:36.392Z,4.33
2019-04-13T14:21:06.867Z,4.70
2019-04-13T14:23:37.807Z,4.90
2019-04-13T14:26:08.038Z,5.00
2019-04-13T14:28:38.183Z,4.87
2019-04-13T14:31:08.450Z,5.10
2019-04-13T14:33:38.643Z,5.03
2019-04-13T14:36:08.894Z,4.83
2019-04-13T14:38:39.088Z,4.60
2019-04-13T14:41:10.414Z,4.63
2019-04-13T14:43:41.571Z,4.50
2019-04-13T14:46:12.200Z,4.67
2019-04-13T14:48:42.372Z,4.10
2019-04-13T14:51:12.468Z,4.73
2019-04-13T14:53:46.198Z,4.43
2019-04-13T14:56:14.611Z,4.57
2019-04-13T14:58:45.772Z,4.77
2019-04-13T15:01:16.757Z,4.60
2019-04-13T15:03:47.004Z,4.77
2019-04-13T15:06:21.261Z,4.67
2019-04-13T15:08:50.971Z,4.70
2019-04-13T15:11:21.204Z,4.33
2019-04-13T15:13:51.490Z,4.77
2019-04-13T15:16:26.313Z,4.30
2019-04-13T15:19:22.349Z,4.70
2019-04-13T15:21:41.774Z,4.17
2019-04-13T15:24:15.298Z,4.07
2019-04-13T15:26:45.691Z,4.50
2019-04-13T15:29:19.534Z,4.47
2019-04-13T15:31:48.843Z,4.07
2019-04-13T15:34:20.368Z,4.40
2019-04-13T15:36:51.035Z,4.20
2019-04-13T15:39:22.506Z,4.50
2019-04-13T15:42:08.074Z,4.03
2019-04-13T15:44:29.486Z,4.47
2019-04-13T15:47:05.947Z,4.20
2019-04-13T15:49:31.738Z,4.30
2019-04-13T15:52:02.071Z,3.87
2019-04-13T15:54:32.921Z,4.23
2019-04-13T15:57:03.682Z,4.00
2019-04-13T15:59:35.328Z,4.00
2019-04-13T16:02:05.949Z,4.00
2019-04-13T16:04:37.290Z,4.10
2019-04-13T16:07:07.745Z,3.73
2019-04-13T16:09:57.608Z,4.03
2019-04-13T16:12:34.234Z,3.70
2019-04-13T16:15:05.448Z,3.90
2019-04-13T16:17:36.062Z,4.00
2019-04-13T16:20:07.531Z,4.27
2019-04-13T16:22:39.403Z,4.40
2019-04-13T16:25:10.321Z,4.23
2019-04-13T16:27:59.642Z,4.77
2019-04-13T16:30:52.388Z,4.30
2019-04-13T16:33:35.673Z,4.23
2019-04-13T16:36:14.501Z,4.50
2019-04-13T16:38:58.896Z,4.50
2019-04-13T16:41:21.665Z,4.40
2019-04-13T16:43:58.458Z,4.20
2019-04-13T16:46:34.135Z,4.60
2019-04-13T16:49:35.731Z,4.63
2019-04-13T16:52:13.607Z,4.37
2019-04-13T16:54:56.829Z,4.70
2019-04-13T16:57:46.581Z,4.30
2019-04-13T17:00:37.690Z,4.60
2019-04-13T17:03:29.483Z,4.47
2019-04-13T17:06:02.656Z,4.60
2019-04-13T17:08:34.690Z,4.97
2019-04-13T17:11:04.934Z,5.07
2019-04-13T17:13:35.474Z,4.43
2019-04-13T17:16:07.086Z,4.50
2019-04-13T17:18:54.844Z,4.90
2019-04-13T17:21:41.376Z,4.37
2019-04-13T17:24:30.516Z,4.77
2019-04-13T17:27:08.620Z,5.20
2019-04-13T17:29:59.122Z,5.10
2019-04-13T17:32:34.455Z,4.80
2019-04-13T17:35:18.200Z,4.80
2019-04-13T17:39:18.953Z,5.07
2019-04-13T17:42:29.513Z,5.40
2019-04-13T17:45:00.323Z,5.30
2019-04-13T17:47:43.131Z,5.20
2019-04-13T17:50:32.957Z,5.93
2019-04-13T17:53:11.542Z,5.70
2019-04-13T17:55:48.272Z,6.07
2019-04-13T17:58:56.972Z,5.40
2019-04-13T18:01:58.388Z,5.60
2019-04-13T18:04:48.371Z,5.70
2019-04-13T18:07:40.902Z,5.80
2019-04-13T18:10:40.396Z,5.60
2019-04-13T18:13:19.859Z,5.37
2019-04-13T18:16:11.136Z,5.70
2019-04-13T18:18:45.384Z,5.50
2019-04-13T18:21:16.348Z,5.80
2019-04-13T18:23:46.499Z,5.30
2019-04-13T18:26:18.431Z,5.47
2019-04-13T18:28:54.541Z,5.50
2019-04-13T18:31:27.179Z,5.50
2019-04-13T18:33:59.556Z,5.80
2019-04-13T18:36:32.089Z,5.77
2019-04-13T18:39:02.823Z,5.80
2019-04-13T18:41:35.342Z,5.53
2019-04-13T18:44:07.285Z,5.10
2019-04-13T18:46:38.421Z,5.97
2019-04-13T18:49:09.626Z,6.10
2019-04-13T18:51:40.429Z,5.70
2019-04-13T18:54:13.704Z,5.63
2019-04-13T18:56:44.127Z,4.93
2019-04-13T18:59:15.169Z,5.60
2019-04-13T19:01:45.587Z,5.70
2019-04-13T19:04:15.792Z,6.17
2019-04-13T19:06:45.992Z,6.10
2019-04-13T19:09:16.312Z,5.63
2019-04-13T19:11:46.568Z,6.30
2019-04-13T19:14:16.828Z,6.20
2019-04-13T19:16:47.133Z,6.07
2019-04-13T19:19:17.366Z,5.97
2019-04-13T19:21:47.548Z,6.40
2019-04-13T19:24:17.766Z,6.70
2019-04-13T19:26:48.033Z,7.00
2019-04-13T19:29:18.246Z,7.07
2019-04-13T19:31:50.982Z,6.83
2019-04-13T19:34:21.149Z,6.90
2019-04-13T19:36:51.667Z,6.27
2019-04-13T19:39:21.829Z,6.77
2019-04-13T19:41:52.099Z,7.23
2019-04-13T19:44:22.689Z,7.40
2019-04-13T19:46:53.160Z,7.30
2019-04-13T19:49:23.486Z,7.17
2019-04-13T19:52:12.628Z,6.87
2019-04-13T19:54:42.908Z,7.23
2019-04-13T19:57:13.363Z,7.20
2019-04-13T19:59:43.601Z,7.07
2019-04-13T20:02:14.727Z,7.93
2019-04-13T20:04:44.884Z,9.03
2019-04-13T20:07:15.477Z,8.20
2019-04-13T20:09:45.649Z,9.00
2019-04-13T20:12:16.054Z,9.00
2019-04-13T20:14:47.753Z,9.30
2019-04-13T20:17:18.149Z,9.20
2019-04-13T20:19:48.588Z,9.23
2019-04-13T20:22:19.138Z,9.43
2019-04-13T20:24:49.463Z,9.00
2019-04-13T20:27:19.720Z,8.60
2019-04-13T20:29:51.187Z,8.87
2019-04-13T20:32:21.523Z,9.30
2019-04-13T20:34:51.706Z,9.70
2019-04-13T20:37:23.019Z,9.60
2019-04-13T20:40:07.829Z,9.53
2019-04-13T20:42:38.005Z,10.00
2019-04-13T20:45:09.072Z,9.73
2019-04-13T20:47:39.410Z,9.83
2019-04-13T20:50:09.799Z,9.23
2019-04-13T20:52:40.154Z,9.90
2019-04-13T20:55:12.792Z,9.47
2019-04-13T20:58:01.301Z,11.70
2019-04-13T21:00:33.517Z,13.50
2019-04-13T21:03:03.978Z,12.43
2019-04-13T21:05:34.105Z,12.60
2019-04-13T21:08:04.503Z,12.37
2019-04-13T21:10:34.555Z,11.17
2019-04-13T21:13:05.537Z,10.43
2019-04-13T21:15:35.965Z,10.23
2019-04-13T21:18:06.159Z,9.87
2019-04-13T21:20:36.349Z,9.77
2019-04-13T21:23:06.538Z,9.87
2019-04-13T21:25:37.757Z,10.83
2019-04-13T21:28:08.416Z,10.57
2019-04-13T21:30:38.588Z,10.50
2019-04-13T21:33:08.863Z,9.70
2019-04-13T21:35:40.179Z,9.70
2019-04-13T21:38:10.558Z,10.10
2019-04-13T21:40:40.619Z,9.80
2019-04-13T21:43:10.886Z,9.27
2019-04-13T21:45:41.210Z,10.30
2019-04-13T21:48:11.349Z,9.47
2019-04-13T21:51:03.479Z,9.90
2019-04-13T21:53:42.026Z,9.47
2019-04-13T21:56:12.329Z,10.27
2019-04-13T21:58:42.605Z,10.40
2019-04-13T22:01:32.393Z,10.43
2019-04-13T22:04:04.358Z,9.87
2019-04-13T22:06:34.843Z,9.90
2019-04-13T22:09:08.786Z,10.50
2019-04-13T22:11:39.265Z,11.07
2019-04-13T22:14:12.349Z,10.93
2019-04-13T22:16:41.472Z,10.37
2019-04-13T22:19:11.745Z,10.27
2019-04-13T22:21:41.874Z,10.77
2019-04-13T22:24:13.384Z,10.97
2019-04-13T22:26:43.680Z,10.67
2019-04-13T22:29:46.227Z,10.80
2019-04-13T22:32:47.472Z,10.13
2019-04-13T22:35:40.830Z,11.07
2019-04-13T22:38:11.486Z,10.87
2019-04-13T22:40:41.625Z,10.90
2019-04-13T22:43:13.050Z,11.40
2019-04-13T22:45:44.646Z,11.93
2019-04-13T22:48:22.409Z,10.87
2019-04-13T22:51:08.022Z,11.83
2019-04-13T22:53:50.670Z,11.93
2019-04-13T22:56:29.303Z,10.77
2019-04-13T22:59:00.135Z,10.77
2019-04-13T23:01:33.313Z,11.50
2019-04-13T23:04:03.728Z,10.77
2019-04-13T23:06:34.213Z,11.17
2019-04-13T23:09:06.479Z,11.07
2019-04-13T23:11:36.904Z,11.33
2019-04-13T23:14:07.183Z,11.07
2019-04-13T23:16:37.657Z,11.73
2019-04-13T23:19:08.924Z,11.17
2019-04-13T23:21:39.816Z,11.40
2019-04-13T23:24:10.354Z,11.47
2019-04-13T23:26:40.881Z,11.27
2019-04-13T23:29:11.143Z,11.47
2019-04-13T23:31:41.412Z,11.40
2019-04-13T23:34:11.521Z,11.83
2019-04-13T23:36:42.231Z,11.20
2019-04-13T23:39:12.772Z,11.43
2019-04-13T23:41:47.282Z,11.63
2019-04-13T23:44:18.110Z,11.50
2019-04-13T23:46:48.436Z,10.67
2019-04-13T23:49:18.843Z,11.60
2019-04-13T23:51:49.053Z,11.33
2019-04-13T23:54:19.645Z,11.23
2019-04-13T23:57:09.568Z,11.37
2019-04-13T23:59:45.715Z,11.10
